Time;durP1;ratioP1;P1;durP2;ratioP2;P2;SDS_P1;SDS_P2;PMS_P1;PMS_P2;Temp;Humidity;BMP_temperature;BMP_pressure;BME280_temperature;BME280_humidity;BME280_pressure;Samples;Min_cycle;Max_cycle;Signal;HPM_P1;HPM_P2
2021/06/15 00:01:53;;;;;;;7.13;3.38;;;20.00;82.50;;;;;;5098179;28;20040;-69
2021/06/15 00:04:19;;;;;;;7.70;3.40;;;20.10;82.30;;;;;;5098240;28;20112;-69
2021/06/15 00:06:45;;;;;;;12.02;4.90;;;20.10;81.50;;;;;;5098075;28;20031;-69
2021/06/15 00:09:10;;;;;;;5.88;3.58;;;20.10;80.90;;;;;;5096759;28;20020;-69
2021/06/15 00:11:36;;;;;;;8.38;3.80;;;20.10;81.00;;;;;;5098007;28;20028;-69
2021/06/15 00:14:03;;;;;;;5.20;3.80;;;20.10;80.50;;;;;;5098080;28;20028;-69
2021/06/15 00:16:28;;;;;;;6.28;3.50;;;20.10;81.00;;;;;;5097632;28;20397;-69
2021/06/15 00:18:54;;;;;;;8.40;3.70;;;20.00;81.30;;;;;;5097603;28;20027;-69
2021/06/15 00:21:20;;;;;;;9.15;2.90;;;20.00;81.70;;;;;;5097878;28;20115;-69
2021/06/15 00:23:46;;;;;;;5.40;3.30;;;19.90;81.60;;;;;;5097549;28;20028;-69
2021/06/15 00:26:11;;;;;;;6.55;4.28;;;19.90;81.70;;;;;;5097769;28;20129;-69
2021/06/15 00:28:37;;;;;;;7.97;3.53;;;19.90;81.50;;;;;;5097115;28;20016;-69
2021/06/15 00:31:04;;;;;;;6.78;4.00;;;19.90;81.30;;;;;;5096299;28;20040;-69
2021/06/15 00:33:30;;;;;;;6.25;3.25;;;19.90;81.50;;;;;;5097603;28;20031;-69
2021/06/15 00:35:55;;;;;;;7.45;3.40;;;19.90;81.60;;;;;;5097308;28;20024;-69
2021/06/15 00:38:21;;;;;;;10.20;3.55;;;19.90;81.60;;;;;;5097294;28;20032;-69
2021/06/15 00:40:47;;;;;;;9.30;3.63;;;19.90;81.90;;;;;;5097231;28;20110;-69
2021/06/15 00:43:13;;;;;;;9.27;3.28;;;20.00;81.90;;;;;;5097458;28;20035;-69
2021/06/15 00:45:38;;;;;;;8.30;3.20;;;19.90;81.50;;;;;;5097137;28;20028;-69
2021/06/15 00:48:04;;;;;;;5.65;3.15;;;19.90;81.30;;;;;;5097391;28;20024;-69
2021/06/15 00:50:30;;;;;;;9.07;3.75;;;19.90;81.10;;;;;;5097155;28;20024;-69
2021/06/15 00:52:57;;;;;;;8.05;3.97;;;20.00;81.00;;;;;;5097326;28;20035;-69
2021/06/15 00:55:24;;;;;;;6.80;3.45;;;19.90;81.50;;;;;;5097308;28;20400;-69
2021/06/15 00:57:51;;;;;;;6.80;3.28;;;19.90;81.30;;;;;;5097302;28;20069;-69
2021/06/15 01:00:18;;;;;;;6.38;2.97;;;19.90;81.80;;;;;;5096946;28;20022;-69
2021/06/15 01:02:44;;;;;;;6.68;3.45;;;19.90;81.80;;;;;;5097225;28;20359;-69
2021/06/15 01:05:12;;;;;;;6.80;3.33;;;19.90;82.10;;;;;;5097179;28;20026;-69
2021/06/15 01:08:00;;;;;;;9.85;2.92;;;19.90;81.50;;;;;;5096855;28;20427;-69
2021/06/15 01:10:55;;;;;;;9.20;3.30;;;19.90;82.20;;;;;;5097356;28;20365;-69
2021/06/15 01:13:42;;;;;;;5.13;3.08;;;19.80;82.50;;;;;;5096725;28;20420;-69
2021/06/15 01:16:19;;;;;;;6.15;3.22;;;19.70;81.80;;;;;;5096750;28;20054;-69
2021/06/15 01:18:50;;;;;;;8.73;3.78;;;19.70;81.80;;;;;;5096899;28;20412;-69
2021/06/15 01:21:18;;;;;;;8.20;3.92;;;19.80;81.70;;;;;;5097069;28;20147;-69
2021/06/15 01:23:50;;;;;;;7.75;3.80;;;19.80;82.00;;;;;;5097059;28;20036;-69
2021/06/15 01:26:18;;;;;;;6.72;3.55;;;19.80;81.40;;;;;;5096926;28;20032;-69
2021/06/15 01:28:54;;;;;;;5.07;3.30;;;19.80;81.30;;;;;;5096719;28;20128;-69
2021/06/15 01:31:26;;;;;;;5.72;3.30;;;19.80;82.30;;;;;;5096940;28;20055;-69
2021/06/15 01:34:17;;;;;;;9.82;4.20;;;19.80;81.70;;;;;;5096904;28;20038;-69
2021/06/15 01:37:08;;;;;;;6.50;3.85;;;19.80;82.10;;;;;;5096561;28;20110;-69
2021/06/15 01:39:58;;;;;;;6.88;3.50;;;19.70;82.20;;;;;;5096879;28;20020;-69
2021/06/15 01:42:35;;;;;;;9.45;4.18;;;19.70;81.80;;;;;;5097843;28;20522;-69
2021/06/15 01:45:06;;;;;;;8.40;3.20;;;19.70;81.60;;;;;;5101076;28;20036;-69
2021/06/15 01:47:33;;;;;;;5.40;3.92;;;19.70;82.10;;;;;;5100554;28;20078;-69
2021/06/15 01:50:04;;;;;;;6.25;4.03;;;19.60;82.40;;;;;;5100473;28;20032;-69
2021/06/15 01:52:40;;;;;;;10.40;3.83;;;19.60;82.30;;;;;;5100362;28;20028;-69
2021/06/15 01:55:08;;;;;;;5.93;3.58;;;19.50;82.30;;;;;;5100682;28;20073;-69
2021/06/15 01:57:35;;;;;;;8.52;3.70;;;19.50;82.30;;;;;;5100314;28;20067;-69
2021/06/15 02:00:10;;;;;;;7.68;3.60;;;19.50;82.00;;;;;;5100258;28;20420;-69
2021/06/15 02:02:39;;;;;;;7.82;4.03;;;19.50;82.60;;;;;;5100619;28;20032;-69
2021/06/15 02:05:09;;;;;;;6.35;4.00;;;19.50;82.50;;;;;;5100158;28;20058;-69
2021/06/15 02:07:40;;;;;;;5.32;3.97;;;19.40;82.70;;;;;;5100493;28;20058;-69
2021/06/15 02:10:09;;;;;;;8.38;3.75;;;19.30;82.60;;;;;;5100432;28;20047;-69
2021/06/15 02:12:42;;;;;;;7.03;3.35;;;19.30;82.90;;;;;;5100221;28;20050;-69
2021/06/15 02:15:10;;;;;;;8.48;4.00;;;19.20;83.00;;;;;;5099961;28;20032;-69
2021/06/15 02:17:41;;;;;;;13.70;4.45;;;19.10;83.60;;;;;;5100243;28;20040;-69
2021/06/15 02:20:10;;;;;;;8.07;4.32;;;19.00;83.20;;;;;;5099964;28;20412;-69
2021/06/15 02:22:36;;;;;;;7.35;3.70;;;18.90;83.60;;;;;;5099851;28;20027;-69
2021/06/15 02:25:04;;;;;;;8.10;4.00;;;18.90;84.20;;;;;;5100094;28;20028;-69
2021/06/15 02:27:30;;;;;;;9.23;4.90;;;18.80;84.50;;;;;;5099781;28;20053;-69
2021/06/15 02:29:57;;;;;;;5.43;4.35;;;18.70;84.30;;;;;;5099564;28;20139;-69
2021/06/15 02:32:28;;;;;;;13.30;5.32;;;18.70;84.60;;;;;;5099887;28;20427;-69
2021/06/15 02:34:56;;;;;;;8.10;4.85;;;18.70;84.40;;;;;;5099953;28;20016;-69
2021/06/15 02:37:30;;;;;;;8.82;4.55;;;18.80;84.30;;;;;;5099907;28;20354;-69
2021/06/15 02:39:57;;;;;;;15.40;5.18;;;18.80;84.10;;;;;;5099756;28;20359;-69
2021/06/15 02:42:24;;;;;;;7.43;5.35;;;18.90;84.10;;;;;;5099454;28;20404;-69
2021/06/15 02:44:53;;;;;;;7.70;4.93;;;18.90;84.30;;;;;;5099897;28;20396;-69
2021/06/15 02:47:20;;;;;;;8.65;4.68;;;18.90;83.80;;;;;;5099405;28;20016;-69
2021/06/15 02:49:58;;;;;;;6.10;4.50;;;19.00;83.40;;;;;;5099637;28;20327;-69
2021/06/15 02:52:48;;;;;;;9.05;5.13;;;19.00;83.60;;;;;;5099542;28;20024;-69
2021/06/15 02:55:29;;;;;;;6.47;4.75;;;19.00;84.00;;;;;;5098063;28;20035;-69
2021/06/15 02:57:55;;;;;;;8.80;4.50;;;18.90;84.20;;;;;;5099501;28;20026;-69
2021/06/15 03:00:21;;;;;;;7.90;5.40;;;19.00;84.30;;;;;;5099140;28;20028;-69
2021/06/15 03:02:47;;;;;;;11.20;4.25;;;19.00;84.10;;;;;;5099388;28;20024;-69
2021/06/15 03:05:14;;;;;;;8.73;4.90;;;19.00;84.80;;;;;;5099315;28;20351;-69
2021/06/15 03:07:41;;;;;;;7.57;4.30;;;18.80;84.90;;;;;;5099284;28;20028;-69
2021/06/15 03:10:08;;;;;;;6.78;4.47;;;18.70;85.60;;;;;;5099288;28;20036;-69
2021/06/15 03:12:40;;;;;;;7.80;5.07;;;18.80;85.70;;;;;;5099083;28;20074;-69
2021/06/15 03:15:09;;;;;;;6.53;4.43;;;18.80;85.60;;;;;;5099174;28;20365;-69
2021/06/15 03:17:38;;;;;;;5.25;3.72;;;18.80;85.20;;;;;;5099173;28;20099;-69
2021/06/15 03:20:07;;;;;;;9.70;3.58;;;18.80;85.60;;;;;;5098737;28;20020;-69
2021/06/15 03:23:15;;;;;;;4.75;3.25;;;18.80;85.30;;;;;;5098694;28;20435;-69
2021/06/15 03:25:41;;;;;;;7.30;3.80;;;18.80;84.10;;;;;;5089675;28;20036;-69
2021/06/15 03:28:16;;;;;;;4.90;3.00;;;18.70;83.40;;;;;;5098959;28;20032;-69
2021/06/15 03:30:45;;;;;;;4.55;2.83;;;18.80;82.60;;;;;;5098357;28;20079;-69
2021/06/15 03:33:16;;;;;;;6.00;3.00;;;18.90;81.60;;;;;;5098700;28;20312;-69
2021/06/15 03:35:44;;;;;;;5.20;2.58;;;18.90;82.40;;;;;;5098717;28;20028;-69
2021/06/15 03:38:12;;;;;;;4.38;2.70;;;19.00;83.00;;;;;;5098711;28;20016;-69
2021/06/15 03:40:48;;;;;;;5.32;2.35;;;19.00;80.60;;;;;;5098328;28;20028;-69
2021/06/15 03:43:14;;;;;;;5.28;2.80;;;19.00;82.00;;;;;;5098467;28;20028;-69
2021/06/15 03:45:43;;;;;;;5.57;2.63;;;19.00;81.20;;;;;;5098194;28;20032;-69
2021/06/15 03:48:09;;;;;;;6.63;2.35;;;19.00;82.30;;;;;;5098169;28;20020;-69
2021/06/15 03:50:37;;;;;;;7.35;3.28;;;19.10;82.60;;;;;;5098505;28;20035;-69
2021/06/15 03:53:07;;;;;;;3.88;2.60;;;19.10;82.30;;;;;;5098310;28;20024;-69
2021/06/15 03:55:37;;;;;;;4.47;2.22;;;19.00;82.30;;;;;;5097985;28;20024;-69
2021/06/15 03:58:06;;;;;;;8.13;2.60;;;19.00;82.90;;;;;;5097985;28;20035;-69
2021/06/15 04:00:34;;;;;;;4.93;2.05;;;19.00;84.00;;;;;;5098262;28;20029;-69
2021/06/15 04:03:03;;;;;;;4.38;2.55;;;19.10;84.70;;;;;;5098213;28;20024;-69
2021/06/15 04:05:30;;;;;;;3.42;2.10;;;19.10;84.30;;;;;;5097926;28;20036;-69
2021/06/15 04:08:04;;;;;;;3.88;2.22;;;19.20;84.50;;;;;;5098119;28;20099;-69
2021/06/15 04:10:31;;;;;;;5.32;3.00;;;19.30;84.30;;;;;;5098160;28;20039;-69
2021/06/15 04:13:01;;;;;;;5.82;3.17;;;19.30;83.80;;;;;;5097656;28;20103;-69
2021/06/15 04:15:27;;;;;;;4.88;2.53;;;19.40;82.20;;;;;;5098027;28;20362;-69
2021/06/15 04:17:57;;;;;;;6.45;2.50;;;19.50;83.30;;;;;;5098017;28;20027;-69
2021/06/15 04:20:29;;;;;;;3.63;2.75;;;19.60;82.00;;;;;;5097923;28;20024;-69
2021/06/15 04:22:55;;;;;;;4.40;2.88;;;19.70;81.90;;;;;;5097885;28;20346;-69
2021/06/15 04:25:26;;;;;;;7.60;3.17;;;19.70;82.00;;;;;;5097503;28;20057;-69
2021/06/15 04:27:52;;;;;;;5.78;2.72;;;19.70;82.00;;;;;;5097827;28;20032;-69
2021/06/15 04:30:19;;;;;;;6.50;2.90;;;19.80;82.30;;;;;;5097368;28;20055;-69
2021/06/15 04:32:56;;;;;;;7.35;2.95;;;19.90;80.70;;;;;;5097582;28;20301;-69
2021/06/15 04:35:43;;;;;;;5.50;2.70;;;20.00;79.70;;;;;;5097382;28;20113;-69
2021/06/15 04:38:12;;;;;;;9.85;3.20;;;20.00;78.70;;;;;;5097456;28;20024;-69
2021/06/15 04:40:44;;;;;;;3.15;2.13;;;20.00;82.50;;;;;;5097272;28;20020;-69
2021/06/15 04:43:39;;;;;;;6.28;2.70;;;20.00;83.10;;;;;;5097268;28;20411;-69
2021/06/15 04:46:27;;;;;;;7.70;3.65;;;20.00;82.80;;;;;;5097452;28;20028;-69
2021/06/15 04:49:05;;;;;;;5.90;2.60;;;20.00;83.80;;;;;;5096989;28;20439;-69
2021/06/15 04:51:31;;;;;;;5.68;2.92;;;20.10;83.10;;;;;;5097371;28;20115;-69
2021/06/15 04:54:00;;;;;;;4.60;2.33;;;20.10;82.60;;;;;;5097105;28;20031;-69
2021/06/15 04:56:29;;;;;;;4.97;2.33;;;20.00;82.70;;;;;;5097277;28;20032;-69
2021/06/15 04:59:00;;;;;;;5.75;2.80;;;20.00;82.70;;;;;;5097284;28;20020;-69
2021/06/15 05:01:28;;;;;;;6.72;3.20;;;20.00;83.60;;;;;;5097013;28;20106;-69
2021/06/15 05:03:55;;;;;;;3.75;2.83;;;20.00;83.50;;;;;;5097308;28;20016;-69
2021/06/15 05:06:21;;;;;;;5.28;2.83;;;20.00;79.70;;;;;;5096851;28;20031;-69
2021/06/15 05:09:03;;;;;;;6.38;3.20;;;20.00;79.60;;;;;;5097193;28;20027;-69
2021/06/15 05:11:34;;;;;;;4.93;2.95;;;20.10;79.20;;;;;;5096761;28;20035;-69
2021/06/15 05:14:04;;;;;;;4.63;2.30;;;20.10;80.80;;;;;;5096737;28;20471;-69
2021/06/15 05:16:34;;;;;;;4.05;2.72;;;20.10;79.00;;;;;;5096525;28;20316;-69
2021/06/15 05:19:01;;;;;;;6.85;3.30;;;20.20;78.60;;;;;;5096946;28;20020;-69
2021/06/15 05:21:34;;;;;;;5.20;2.20;;;20.20;76.60;;;;;;5097009;28;20038;-69
2021/06/15 05:24:05;;;;;;;5.78;2.38;;;20.20;77.90;;;;;;5096736;28;20122;-69
2021/06/15 05:26:31;;;;;;;3.58;2.30;;;20.40;79.40;;;;;;5096969;28;20107;-69
2021/06/15 05:28:57;;;;;;;6.20;2.58;;;20.50;77.20;;;;;;5096757;28;20055;-69
2021/06/15 05:31:23;;;;;;;5.03;2.33;;;20.50;76.10;;;;;;5096599;28;20404;-69
2021/06/15 05:33:49;;;;;;;3.28;1.90;;;20.60;76.30;;;;;;5096955;28;20044;-69
2021/06/15 05:36:15;;;;;;;4.43;2.00;;;20.70;76.00;;;;;;5096530;28;20060;-69
2021/06/15 05:38:41;;;;;;;4.35;2.17;;;20.80;76.00;;;;;;5096530;28;20020;-69
2021/06/15 05:41:07;;;;;;;4.88;2.05;;;20.80;74.80;;;;;;5096851;28;20020;-69
2021/06/15 05:43:32;;;;;;;4.43;2.20;;;20.80;75.70;;;;;;5096878;28;20438;-69
2021/06/15 05:45:58;;;;;;;6.05;2.10;;;20.80;75.40;;;;;;5096808;28;20052;-69
2021/06/15 05:48:24;;;;;;;4.97;2.20;;;20.80;75.40;;;;;;5096757;28;20308;-69
2021/06/15 05:50:50;;;;;;;5.00;2.20;;;20.80;75.30;;;;;;5096812;28;20392;-69
2021/06/15 05:53:16;;;;;;;3.42;1.88;;;20.80;75.30;;;;;;5096646;28;20360;-69
2021/06/15 05:55:42;;;;;;;3.22;1.83;;;20.80;75.30;;;;;;5096635;28;20024;-69
2021/06/15 05:58:08;;;;;;;5.57;1.83;;;20.90;74.90;;;;;;5096748;28;20095;-69
2021/06/15 06:00:34;;;;;;;5.47;1.40;;;21.10;74.90;;;;;;5096698;28;20297;-69
2021/06/15 06:02:59;;;;;;;6.28;2.03;;;21.30;75.60;;;;;;5096655;28;20028;-69
2021/06/15 06:08:10;;;;;;;3.28;1.90;;;22.00;70.30;;;;;;5096453;28;20035;-69
2021/06/15 06:10:39;;;;;;;4.03;2.10;;;22.30;71.10;;;;;;5096619;28;20036;-69
2021/06/15 06:13:07;;;;;;;5.07;2.13;;;22.50;71.00;;;;;;5096428;28;20042;-69
2021/06/15 06:15:33;;;;;;;9.07;2.35;;;22.60;70.10;;;;;;5096207;28;20028;-69
2021/06/15 06:18:08;;;;;;;6.70;2.20;;;23.00;69.20;;;;;;5096554;28;20039;-69
2021/06/15 06:20:35;;;;;;;4.75;1.85;;;23.50;68.00;;;;;;5096257;28;20024;-69
2021/06/15 06:23:01;;;;;;;3.53;1.77;;;24.00;65.00;;;;;;5096213;28;20116;-69
2021/06/15 06:25:28;;;;;;;4.57;2.25;;;24.40;64.60;;;;;;5096362;28;20035;-70
2021/06/15 06:27:54;;;;;;;6.55;2.75;;;25.00;63.30;;;;;;5096834;28;20028;-70
2021/06/15 06:30:20;;;;;;;3.88;2.15;;;25.50;62.80;;;;;;5099606;28;20131;-70
2021/06/15 06:32:46;;;;;;;3.47;1.73;;;25.70;63.00;;;;;;5099641;28;20024;-70
2021/06/15 06:35:12;;;;;;;3.72;1.80;;;25.80;62.00;;;;;;5099628;28;20107;-70
2021/06/15 06:37:38;;;;;;;5.50;2.53;;;26.00;60.70;;;;;;5099917;28;20040;-70
2021/06/15 06:40:05;;;;;;;5.57;2.45;;;25.90;61.10;;;;;;5099890;28;20054;-70
2021/06/15 06:42:32;;;;;;;5.13;2.10;;;26.00;61.00;;;;;;5099783;28;20031;-70
2021/06/15 06:44:57;;;;;;;4.15;1.83;;;26.30;59.50;;;;;;5099960;28;20362;-70
2021/06/15 06:47:23;;;;;;;6.93;2.38;;;26.60;58.20;;;;;;5099747;28;20028;-70
2021/06/15 06:49:49;;;;;;;4.80;1.70;;;26.90;58.00;;;;;;5099704;28;20301;-70
2021/06/15 06:52:15;;;;;;;5.80;2.30;;;27.00;60.10;;;;;;5099261;28;20031;-70
2021/06/15 06:54:41;;;;;;;6.35;1.90;;;27.10;59.30;;;;;;5099585;28;20032;-70
2021/06/15 06:57:06;;;;;;;2.55;1.58;;;27.40;57.90;;;;;;5099588;28;20026;-70
2021/06/15 06:59:32;;;;;;;4.28;1.95;;;27.60;58.70;;;;;;5099220;28;20024;-70
2021/06/15 07:01:58;;;;;;;5.30;2.20;;;27.70;56.90;;;;;;5099420;28;20044;-70
2021/06/15 07:04:23;;;;;;;4.00;1.92;;;27.70;57.50;;;;;;5099164;28;20048;-70
2021/06/15 07:06:49;;;;;;;7.53;1.95;;;27.40;57.70;;;;;;5099291;28;20024;-70
2021/06/15 07:09:14;;;;;;;4.57;2.03;;;27.70;58.00;;;;;;5098978;28;20020;-70
2021/06/15 07:11:40;;;;;;;6.18;1.95;;;27.60;56.50;;;;;;5098877;28;20031;-70
2021/06/15 07:14:06;;;;;;;4.45;1.80;;;27.70;57.40;;;;;;5099346;28;20082;-70
2021/06/15 07:16:31;;;;;;;9.05;2.33;;;27.80;56.30;;;;;;5099126;28;20110;-70
2021/06/15 07:18:57;;;;;;;4.28;2.42;;;27.90;56.90;;;;;;5099109;28;20421;-70
2021/06/15 07:21:23;;;;;;;3.30;1.58;;;27.80;56.40;;;;;;5099075;28;20028;-70
2021/06/15 07:23:48;;;;;;;3.33;1.83;;;27.40;57.20;;;;;;5098749;28;20114;-70
2021/06/15 07:26:14;;;;;;;3.70;1.60;;;27.30;58.40;;;;;;5098932;28;20035;-70
2021/06/15 07:28:40;;;;;;;4.35;1.90;;;27.50;57.90;;;;;;5098756;28;20289;-70
2021/06/15 07:31:05;;;;;;;5.00;1.60;;;27.80;56.50;;;;;;5098794;28;20058;-70
2021/06/15 07:33:31;;;;;;;6.60;2.42;;;28.10;56.80;;;;;;5098882;28;20404;-70
2021/06/15 07:35:57;;;;;;;5.55;1.80;;;28.50;55.50;;;;;;5098773;28;20097;-70
2021/06/15 07:38:23;;;;;;;4.20;2.00;;;28.70;54.40;;;;;;5098720;28;20427;-70
2021/06/15 07:40:49;;;;;;;4.00;1.88;;;28.60;56.60;;;;;;5098058;28;20308;-70
2021/06/15 07:43:16;;;;;;;5.18;1.92;;;29.00;56.00;;;;;;5098687;28;20028;-70
2021/06/15 07:45:42;;;;;;;3.65;1.63;;;29.30;56.20;;;;;;5098564;28;20040;-70
2021/06/15 07:48:08;;;;;;;4.82;1.80;;;29.20;56.00;;;;;;5098561;28;20422;-70
2021/06/15 07:50:34;;;;;;;2.40;1.35;;;28.50;56.60;;;;;;5098171;28;20074;-70
2021/06/15 07:52:59;;;;;;;4.85;1.95;;;28.10;58.10;;;;;;5098050;28;20032;-70
2021/06/15 07:55:25;;;;;;;4.28;1.75;;;28.20;58.80;;;;;;5098412;28;20059;-70
2021/06/15 07:57:51;;;;;;;1.98;1.50;;;28.10;56.10;;;;;;5098373;28;20048;-70
2021/06/15 08:00:17;;;;;;;9.40;2.40;;;28.30;56.30;;;;;;5098345;28;20043;-70
2021/06/15 08:02:44;;;;;;;5.22;1.70;;;28.50;57.90;;;;;;5098246;28;20081;-70
2021/06/15 08:05:11;;;;;;;6.70;2.20;;;28.00;57.40;;;;;;5098217;28;20024;-70
2021/06/15 08:07:37;;;;;;;5.28;2.05;;;27.90;57.00;;;;;;5098197;28;20080;-70
2021/06/15 08:10:03;;;;;;;6.30;2.40;;;28.10;55.60;;;;;;5098160;28;20405;-70
2021/06/15 08:12:29;;;;;;;4.22;2.10;;;27.40;56.80;;;;;;5098007;28;20020;-70
2021/06/15 08:14:55;;;;;;;5.70;2.30;;;26.60;59.20;;;;;;5098259;28;20043;-70
2021/06/15 08:17:21;;;;;;;4.70;2.13;;;26.10;61.10;;;;;;5097739;28;20423;-70
2021/06/15 08:19:46;;;;;;;4.50;1.95;;;26.60;63.40;;;;;;5097951;28;20016;-70
2021/06/15 08:22:12;;;;;;;7.00;2.22;;;26.30;63.80;;;;;;5097585;28;20063;-70
2021/06/15 08:24:38;;;;;;;7.45;2.60;;;25.80;64.10;;;;;;5097524;28;20116;-69
2021/06/15 08:27:03;;;;;;;7.22;3.15;;;25.40;65.50;;;;;;5097854;28;20028;-69
2021/06/15 08:29:30;;;;;;;5.10;2.50;;;25.50;62.90;;;;;;5097297;28;20455;-70
2021/06/15 08:31:56;;;;;;;4.72;2.50;;;26.10;63.10;;;;;;5097610;28;20094;-70
2021/06/15 08:34:22;;;;;;;6.03;2.28;;;26.90;62.80;;;;;;5097446;28;20149;-70
2021/06/15 08:36:48;;;;;;;5.28;2.70;;;27.30;60.50;;;;;;5097629;28;20020;-70
2021/06/15 08:39:13;;;;;;;6.60;2.55;;;27.30;57.90;;;;;;5097686;28;20359;-70
2021/06/15 08:41:39;;;;;;;5.70;2.60;;;27.80;58.60;;;;;;5097296;28;20027;-70
2021/06/15 08:44:06;;;;;;;5.05;2.42;;;28.30;58.20;;;;;;5097527;28;20028;-70
2021/06/15 08:46:32;;;;;;;6.03;2.40;;;27.70;59.00;;;;;;5097449;28;20081;-70
2021/06/15 08:49:00;;;;;;;5.28;2.30;;;27.10;59.70;;;;;;5097135;28;20028;-70
2021/06/15 08:51:25;;;;;;;5.32;2.53;;;26.60;60.10;;;;;;5096341;28;20028;-70
2021/06/15 08:53:53;;;;;;;7.50;2.33;;;27.30;60.00;;;;;;5096900;28;20115;-70
2021/06/15 08:56:19;;;;;;;4.32;2.42;;;27.90;59.40;;;;;;5097274;28;20028;-70
2021/06/15 08:58:51;;;;;;;6.75;2.83;;;27.80;58.80;;;;;;5097280;28;20320;-70
2021/06/15 09:01:17;;;;;;;6.57;2.30;;;27.30;58.80;;;;;;5097345;28;20027;-70
2021/06/15 09:03:42;;;;;;;9.35;2.60;;;26.90;61.00;;;;;;5097261;28;20024;-70
2021/06/15 09:06:08;;;;;;;5.63;3.50;;;27.10;62.00;;;;;;5096868;28;20099;-70
2021/06/15 09:08:56;;;;;;;7.50;2.70;;;27.60;58.00;;;;;;5096876;28;20412;-70
2021/06/15 09:11:23;;;;;;;6.45;2.30;;;28.00;59.70;;;;;;5096817;28;20473;-70
2021/06/15 09:13:49;;;;;;;5.75;2.95;;;28.30;56.60;;;;;;5096743;28;20035;-70
2021/06/15 09:16:23;;;;;;;3.97;2.15;;;28.60;57.40;;;;;;5097042;28;20020;-70
2021/06/15 09:18:51;;;;;;;5.50;2.10;;;29.20;54.50;;;;;;5097132;28;20024;-70
2021/06/15 09:21:28;;;;;;;4.63;1.95;;;29.80;55.40;;;;;;5097068;28;20028;-70
2021/06/15 09:24:03;;;;;;;3.42;2.30;;;30.30;52.10;;;;;;5095754;28;20066;-70
2021/06/15 09:27:05;;;;;;;2.78;1.83;;;30.20;51.70;;;;;;5096662;28;20044;-70
2021/06/15 09:29:53;;;;;;;5.15;2.03;;;30.10;53.20;;;;;;5096788;28;20063;-70
2021/06/15 09:32:37;;;;;;;5.25;2.00;;;30.40;52.30;;;;;;5096901;28;20027;-70
2021/06/15 09:35:09;;;;;;;6.80;2.08;;;30.40;51.40;;;;;;5096907;28;20051;-70
2021/06/15 09:37:36;;;;;;;5.57;2.45;;;29.90;54.60;;;;;;5096530;28;20499;-70
2021/06/15 09:40:12;;;;;;;3.95;1.95;;;29.80;50.60;;;;;;5096603;28;20024;-70
2021/06/15 09:43:03;;;;;;;3.22;2.03;;;29.60;54.10;;;;;;5096519;28;20035;-70
2021/06/15 09:45:42;;;;;;;5.95;2.28;;;29.90;52.80;;;;;;5096508;28;20456;-70
2021/06/15 09:48:28;;;;;;;6.43;2.10;;;30.30;52.30;;;;;;5096887;28;20024;-70
2021/06/15 09:51:21;;;;;;;4.57;1.73;;;30.40;52.70;;;;;;5096815;28;20028;-70
2021/06/15 09:53:58;;;;;;;3.10;2.00;;;30.00;55.20;;;;;;5094956;28;20339;-70
2021/06/15 09:56:24;;;;;;;4.38;2.22;;;30.00;55.20;;;;;;5096723;28;20289;-70
2021/06/15 09:58:55;;;;;;;6.55;2.40;;;30.20;53.80;;;;;;5096404;28;20031;-70
2021/06/15 10:01:27;;;;;;;4.97;2.67;;;30.50;53.10;;;;;;5096713;28;20024;-70
2021/06/15 10:04:21;;;;;;;5.47;2.30;;;29.50;50.20;;;;;;5098692;28;20032;-70
2021/06/15 10:06:49;;;;;;;8.10;2.50;;;28.30;54.80;;;;;;5100519;28;20316;-70
2021/06/15 10:09:28;;;;;;;4.95;2.40;;;28.20;59.00;;;;;;5100229;28;20020;-70
2021/06/15 10:11:59;;;;;;;6.78;2.35;;;28.80;55.30;;;;;;5100015;28;20020;-70
2021/06/15 10:14:28;;;;;;;5.78;2.60;;;29.50;54.60;;;;;;5100495;28;20032;-70
2021/06/15 10:16:55;;;;;;;5.20;2.35;;;29.90;53.80;;;;;;5098147;28;20090;-70
2021/06/15 10:19:21;;;;;;;6.70;3.13;;;29.10;58.20;;;;;;5111092;28;20439;-70
2021/06/15 10:21:47;;;;;;;8.48;2.50;;;28.40;55.20;;;;;;5099913;28;20028;-70
2021/06/15 10:24:14;;;;;;;4.35;2.30;;;28.10;58.10;;;;;;5100265;28;20103;-70
2021/06/15 10:26:41;;;;;;;8.40;2.60;;;28.50;56.60;;;;;;5099756;28;20028;-70
2021/06/15 10:29:12;;;;;;;6.60;2.80;;;28.90;58.90;;;;;;5099875;28;20100;-70
2021/06/15 10:31:41;;;;;;;8.10;2.83;;;29.10;54.20;;;;;;5100056;28;20118;-70
2021/06/15 10:34:06;;;;;;;5.90;3.08;;;29.50;54.00;;;;;;5099685;28;20024;-70
2021/06/15 10:36:46;;;;;;;4.32;2.25;;;30.20;52.70;;;;;;5099913;28;20028;-70
2021/06/15 10:39:39;;;;;;;5.35;2.65;;;30.50;53.60;;;;;;5098649;28;20028;-70
2021/06/15 10:42:16;;;;;;;4.93;2.47;;;29.90;52.70;;;;;;5099869;28;20024;-70
2021/06/15 10:44:43;;;;;;;6.45;2.65;;;29.00;54.10;;;;;;5099955;28;20047;-70
2021/06/15 10:47:11;;;;;;;6.57;2.90;;;29.00;55.80;;;;;;5099476;28;20048;-70
2021/06/15 10:49:57;;;;;;;7.20;2.47;;;29.50;55.20;;;;;;5099738;28;20373;-70
2021/06/15 10:52:26;;;;;;;6.03;2.35;;;30.20;55.90;;;;;;5099568;28;20024;-70
2021/06/15 10:54:52;;;;;;;5.40;3.03;;;30.30;57.10;;;;;;5099597;28;20157;-70
2021/06/15 10:57:25;;;;;;;4.78;2.47;;;30.30;53.10;;;;;;5099610;28;20436;-70
2021/06/15 11:00:30;;;;;;;6.70;2.72;;;30.30;52.50;;;;;;5099591;28;20020;-70
2021/06/15 11:03:18;;;;;;;4.67;2.83;;;30.30;54.80;;;;;;5098574;28;20059;-70
2021/06/15 11:05:51;;;;;;;5.90;2.47;;;30.40;54.20;;;;;;5099388;28;20274;-70
2021/06/15 11:08:24;;;;;;;5.40;2.67;;;30.30;54.20;;;;;;5099085;28;20461;-70
2021/06/15 11:11:06;;;;;;;7.00;2.50;;;29.80;55.90;;;;;;5099036;28;20060;-70
2021/06/15 11:13:52;;;;;;;5.88;2.88;;;29.70;54.00;;;;;;5099012;28;20048;-70
2021/06/15 11:16:35;;;;;;;4.32;2.20;;;29.50;54.30;;;;;;5098189;28;20039;-70
2021/06/15 11:19:13;;;;;;;5.97;2.42;;;29.70;55.90;;;;;;5099166;28;20035;-70
2021/06/15 11:21:57;;;;;;;7.65;3.20;;;29.60;57.00;;;;;;5098804;28;20028;-70
2021/06/15 11:24:25;;;;;;;8.38;2.75;;;29.20;55.60;;;;;;5098717;28;20020;-70
2021/06/15 11:26:53;;;;;;;6.80;2.80;;;28.50;57.40;;;;;;5098958;28;20044;-70
2021/06/15 11:29:38;;;;;;;5.88;2.80;;;28.60;57.60;;;;;;5098723;28;20420;-70
2021/06/15 11:32:13;;;;;;;10.10;2.85;;;28.80;57.40;;;;;;5098841;28;20027;-70
2021/06/15 11:34:40;;;;;;;3.95;2.40;;;28.70;58.30;;;;;;5098807;28;20054;-70
2021/06/15 11:37:40;;;;;;;8.57;3.08;;;29.00;60.50;;;;;;5098505;28;20420;-70
2021/06/15 11:40:16;;;;;;;5.95;2.88;;;29.50;57.50;;;;;;5098386;28;20024;-70
2021/06/15 11:42:45;;;;;;;5.30;2.70;;;29.50;57.00;;;;;;5098631;28;20103;-70
2021/06/15 11:45:13;;;;;;;6.55;3.45;;;29.40;57.00;;;;;;5098278;28;20031;-70
2021/06/15 11:47:47;;;;;;;6.40;2.90;;;29.50;57.50;;;;;;5098321;28;20111;-70
2021/06/15 11:50:31;;;;;;;7.43;2.53;;;29.00;56.40;;;;;;5098517;28;20055;-70
2021/06/15 11:53:00;;;;;;;7.90;3.05;;;28.70;58.80;;;;;;5098446;28;20368;-70
2021/06/15 11:55:25;;;;;;;10.25;4.13;;;28.40;59.90;;;;;;5098433;28;20028;-70
2021/06/15 11:57:59;;;;;;;6.80;3.00;;;28.00;55.30;;;;;;5098371;28;20055;-70
2021/06/15 12:00:28;;;;;;;11.63;4.10;;;27.70;63.20;;;;;;5098004;28;20020;-70
2021/06/15 12:03:08;;;;;;;5.78;3.50;;;27.90;61.80;;;;;;5098302;28;20031;-70
2021/06/15 12:05:36;;;;;;;8.20;3.58;;;28.10;58.40;;;;;;5097908;28;20020;-69
2021/06/15 12:08:02;;;;;;;9.07;3.80;;;27.80;59.30;;;;;;5097869;28;20078;-69
2021/06/15 12:10:28;;;;;;;8.60;3.80;;;27.70;60.80;;;;;;5098169;28;20084;-69
2021/06/15 12:12:54;;;;;;;6.07;3.50;;;27.40;59.40;;;;;;5097961;28;20031;-69
2021/06/15 12:15:43;;;;;;;7.75;3.20;;;27.30;60.20;;;;;;5098072;28;20050;-69
2021/06/15 12:18:14;;;;;;;7.93;3.78;;;27.50;62.00;;;;;;5087038;28;20028;-69
2021/06/15 12:20:42;;;;;;;9.52;2.97;;;27.50;58.40;;;;;;5097998;28;20028;-69
2021/06/15 12:23:49;;;;;;;7.80;4.53;;;27.50;65.90;;;;;;5097899;28;20355;-69
2021/06/15 12:26:29;;;;;;;6.75;3.00;;;27.50;58.10;;;;;;5075209;28;20043;-69
2021/06/15 12:29:04;;;;;;;5.57;2.70;;;27.50;62.10;;;;;;5097594;28;20017;-69
2021/06/15 12:31:32;;;;;;;8.05;4.25;;;27.60;62.80;;;;;;5097749;28;20032;-69
2021/06/15 12:34:06;;;;;;;7.97;4.22;;;27.50;61.70;;;;;;5097761;28;20290;-70
2021/06/15 12:36:35;;;;;;;7.80;3.30;;;27.40;61.90;;;;;;5097353;28;20032;-70
2021/06/15 12:39:14;;;;;;;6.13;4.05;;;27.50;61.70;;;;;;5097630;28;20085;-69
2021/06/15 12:41:45;;;;;;;7.65;3.20;;;27.50;59.50;;;;;;5097638;28;20035;-69
2021/06/15 12:44:12;;;;;;;6.53;3.95;;;27.40;66.30;;;;;;5097578;28;20039;-69
2021/06/15 12:46:39;;;;;;;7.85;4.10;;;27.40;62.40;;;;;;5097627;28;20028;-69
2021/06/15 12:49:21;;;;;;;9.63;3.08;;;27.50;61.30;;;;;;5097192;28;20029;-69
2021/06/15 12:51:55;;;;;;;8.35;4.82;;;27.60;62.90;;;;;;5097396;28;20031;-70
2021/06/15 12:54:37;;;;;;;7.43;4.50;;;27.60;61.20;;;;;;5097464;28;20426;-70
2021/06/15 12:57:06;;;;;;;10.02;4.13;;;27.60;62.40;;;;;;5097402;28;20028;-70
2021/06/15 12:59:34;;;;;;;7.60;5.20;;;27.30;62.70;;;;;;5097019;28;20036;-70
2021/06/15 13:02:13;;;;;;;13.02;5.45;;;27.00;59.60;;;;;;5096870;28;20024;-70
2021/06/15 13:04:56;;;;;;;15.02;4.72;;;26.80;60.80;;;;;;5096940;28;20024;-69
2021/06/15 13:07:24;;;;;;;7.03;4.00;;;26.70;60.40;;;;;;5097243;28;20032;-70